createdAt,value
2024-05-09T00:00:42.095Z,20.03
2024-05-09T00:03:10.742Z,19.91
2024-05-09T00:05:40.856Z,19.98
2024-05-09T00:08:09.359Z,19.85
2024-05-09T00:10:38.691Z,19.88
2024-05-09T00:13:07.633Z,19.88
2024-05-09T00:15:35.458Z,19.85
2024-05-09T00:18:03.293Z,19.73
2024-05-09T00:20:37.668Z,19.68
2024-05-09T00:23:08.884Z,19.59
2024-05-09T00:25:36.707Z,19.49
2024-05-09T00:28:03.832Z,19.53
2024-05-09T00:30:35.272Z,19.59
2024-05-09T00:33:08.905Z,19.45
2024-05-09T00:35:37.360Z,19.35
2024-05-09T00:38:04.817Z,19.40
2024-05-09T00:40:40.062Z,19.33
2024-05-09T00:43:14.564Z,19.19
2024-05-09T00:45:42.546Z,19.18
2024-05-09T00:48:13.492Z,19.21
2024-05-09T00:50:44.137Z,19.12
2024-05-09T00:53:12.834Z,19.08
2024-05-09T00:55:40.151Z,18.89
2024-05-09T00:58:08.934Z,18.77
2024-05-09T01:00:39.737Z,18.82
2024-05-09T01:03:12.855Z,18.92
2024-05-09T01:05:42.155Z,18.83
2024-05-09T01:08:10.713Z,18.81
2024-05-09T01:10:37.982Z,18.84
2024-05-09T01:13:05.790Z,18.93
2024-05-09T01:15:33.308Z,18.89
2024-05-09T01:18:07.451Z,18.66
2024-05-09T01:20:41.344Z,18.68
2024-05-09T01:23:11.938Z,18.68
2024-05-09T01:25:39.438Z,18.65
2024-05-09T01:28:06.652Z,18.58
2024-05-09T01:30:36.082Z,18.59
2024-05-09T01:33:07.226Z,18.48
2024-05-09T01:35:36.331Z,18.42
2024-05-09T01:38:03.403Z,18.44
2024-05-09T01:40:37.227Z,18.46
2024-05-09T01:43:07.359Z,18.53
2024-05-09T01:45:34.398Z,18.50
2024-05-09T01:48:02.243Z,18.42
2024-05-09T01:50:37.865Z,18.47
2024-05-09T01:53:09.623Z,18.28
2024-05-09T01:55:36.699Z,18.30
2024-05-09T01:58:03.626Z,18.22
2024-05-09T02:00:38.633Z,18.20
2024-05-09T02:03:11.766Z,18.19
2024-05-09T02:05:42.108Z,18.09
2024-05-09T02:08:16.581Z,18.02
2024-05-09T02:10:44.761Z,18.08
2024-05-09T02:13:12.511Z,18.09
2024-05-09T02:15:39.452Z,18.09
2024-05-09T02:18:07.542Z,17.98
2024-05-09T02:20:36.708Z,17.90
2024-05-09T02:23:06.299Z,17.89
2024-05-09T02:25:33.852Z,17.88
2024-05-09T02:28:00.855Z,17.81
2024-05-09T02:30:37.933Z,17.71
2024-05-09T02:33:09.480Z,17.69
2024-05-09T02:35:37.847Z,17.65
2024-05-09T02:38:05.063Z,17.60
2024-05-09T02:40:37.191Z,17.59
2024-05-09T02:43:07.208Z,17.58
2024-05-09T02:45:34.373Z,17.53
2024-05-09T02:48:01.942Z,17.43
2024-05-09T02:50:34.770Z,17.42
2024-05-09T02:53:10.073Z,17.31
2024-05-09T02:55:41.671Z,17.33
2024-05-09T02:58:09.074Z,17.29
2024-05-09T03:00:39.949Z,17.32
2024-05-09T03:03:12.073Z,17.29
2024-05-09T03:05:41.221Z,17.25
2024-05-09T03:08:08.496Z,17.31
2024-05-09T03:10:37.760Z,17.38
2024-05-09T03:13:11.820Z,17.36
2024-05-09T03:15:39.472Z,17.25
2024-05-09T03:18:07.249Z,17.29
2024-05-09T03:20:36.020Z,17.27
2024-05-09T03:23:05.340Z,17.20
2024-05-09T03:25:33.336Z,17.29
2024-05-09T03:28:00.319Z,17.17
2024-05-09T03:30:38.628Z,17.20
2024-05-09T03:33:15.273Z,17.11
2024-05-09T03:35:43.904Z,17.01
2024-05-09T03:38:10.841Z,16.96
2024-05-09T03:40:45.303Z,17.02
2024-05-09T03:43:13.113Z,17.16
2024-05-09T03:45:40.054Z,17.04
2024-05-09T03:48:07.738Z,17.02
2024-05-09T03:50:36.228Z,17.07
2024-05-09T03:53:04.470Z,17.05
2024-05-09T03:55:31.463Z,16.99
2024-05-09T03:57:58.577Z,17.05
2024-05-09T04:00:31.783Z,17.05
2024-05-09T04:03:07.031Z,17.04
2024-05-09T04:05:36.735Z,17.05
2024-05-09T04:08:03.841Z,16.98
2024-05-09T04:10:33.791Z,17.15
2024-05-09T04:13:02.783Z,17.09
2024-05-09T04:15:29.857Z,17.17
2024-05-09T04:17:56.933Z,17.11
2024-05-09T04:20:33.480Z,16.92
2024-05-09T04:23:06.983Z,16.90
2024-05-09T04:25:34.516Z,16.93
2024-05-09T04:28:01.359Z,16.92
2024-05-09T04:30:36.714Z,17.01
2024-05-09T04:33:08.856Z,17.22
2024-05-09T04:35:38.052Z,17.37
2024-05-09T04:38:05.568Z,17.40
2024-05-09T04:40:35.674Z,17.41
2024-05-09T04:43:13.449Z,17.50
2024-05-09T04:45:40.781Z,17.67
2024-05-09T04:48:08.322Z,17.64
2024-05-09T04:50:38.307Z,17.55
2024-05-09T04:53:09.258Z,17.63
2024-05-09T04:55:37.539Z,17.78
2024-05-09T04:58:05.572Z,17.81
2024-05-09T05:00:37.123Z,17.92
2024-05-09T05:03:13.058Z,17.95
2024-05-09T05:05:42.719Z,18.17
2024-05-09T05:08:14.814Z,18.46
2024-05-09T05:10:43.103Z,18.69
2024-05-09T05:13:20.561Z,18.91
2024-05-09T05:15:56.526Z,18.98
2024-05-09T05:18:25.801Z,19.41
2024-05-09T05:20:53.195Z,19.34
2024-05-09T05:23:21.007Z,19.26
2024-05-09T05:25:49.307Z,19.58
2024-05-09T05:28:17.078Z,20.12
2024-05-09T05:30:44.409Z,20.41
2024-05-09T05:33:13.179Z,20.68
2024-05-09T05:35:40.920Z,20.94
2024-05-09T05:38:08.871Z,21.04
2024-05-09T05:40:40.419Z,21.25
2024-05-09T05:43:09.912Z,21.51
2024-05-09T05:45:37.431Z,21.71
2024-05-09T05:48:06.112Z,21.85
2024-05-09T05:50:36.778Z,22.11
2024-05-09T05:53:10.355Z,22.58
2024-05-09T05:55:39.928Z,22.62
2024-05-09T05:58:14.690Z,22.72
2024-05-09T06:00:42.600Z,22.91
2024-05-09T06:03:11.475Z,23.29
2024-05-09T06:05:46.047Z,23.42
2024-05-09T06:08:13.091Z,23.73
2024-05-09T06:10:41.257Z,23.83
2024-05-09T06:13:12.462Z,24.19
2024-05-09T06:15:40.426Z,24.19
2024-05-09T06:18:09.466Z,24.06
2024-05-09T06:20:39.502Z,24.55
2024-05-09T06:23:07.185Z,24.72
2024-05-09T06:25:35.085Z,24.84
2024-05-09T06:28:02.621Z,25.09
2024-05-09T06:30:38.011Z,25.37
2024-05-09T06:33:09.915Z,25.55
2024-05-09T06:35:38.288Z,25.87
2024-05-09T06:38:06.314Z,26.23
2024-05-09T06:40:37.648Z,26.57
2024-05-09T06:43:13.609Z,26.15
2024-05-09T06:45:40.947Z,26.70
2024-05-09T06:48:09.128Z,27.13
2024-05-09T06:50:38.318Z,26.95
2024-05-09T06:53:07.421Z,27.44
2024-05-09T06:55:34.590Z,27.62
2024-05-09T06:58:01.470Z,28.20
2024-05-09T07:00:35.708Z,29.17
2024-05-09T07:03:11.644Z,30.31
2024-05-09T07:05:39.787Z,31.72
2024-05-09T07:08:07.127Z,32.60
2024-05-09T07:10:36.021Z,33.01
2024-05-09T07:13:16.745Z,31.89
2024-05-09T07:15:43.596Z,31.34
2024-05-09T07:18:20.294Z,30.71
2024-05-09T07:20:49.380Z,29.46
2024-05-09T07:23:17.682Z,28.60
2024-05-09T07:25:44.875Z,28.16
2024-05-09T07:28:16.310Z,27.19
2024-05-09T07:30:43.570Z,27.58
2024-05-09T07:33:16.712Z,27.22
2024-05-09T07:35:43.753Z,27.97
2024-05-09T07:38:10.724Z,28.28
2024-05-09T07:40:38.610Z,28.23
2024-05-09T07:43:06.727Z,28.38
2024-05-09T07:52:32.476Z,29.11
2024-05-09T07:55:55.441Z,28.45
2024-05-09T07:58:27.101Z,28.23
2024-05-09T08:00:54.537Z,29.20
2024-05-09T08:03:21.500Z,29.12
2024-05-09T08:05:48.439Z,28.74
2024-05-09T08:08:15.327Z,29.49
2024-05-09T08:10:42.354Z,29.46
2024-05-09T08:13:09.328Z,29.76
2024-05-09T08:15:37.835Z,30.42
2024-05-09T08:18:09.798Z,30.61
2024-05-09T08:20:38.407Z,30.82
2024-05-09T08:23:05.706Z,31.11
2024-05-09T08:25:32.689Z,31.38
2024-05-09T08:27:59.715Z,31.55
2024-05-09T08:30:33.425Z,31.52
2024-05-09T08:33:05.096Z,31.06
2024-05-09T08:35:32.917Z,32.10
2024-05-09T08:37:59.991Z,32.12
2024-05-09T08:40:34.061Z,32.41
2024-05-09T08:43:07.938Z,33.05
2024-05-09T08:45:36.068Z,33.46
2024-05-09T08:48:06.379Z,33.80
2024-05-09T08:50:38.799Z,34.77
2024-05-09T08:53:07.971Z,35.41
2024-05-09T08:55:37.400Z,35.43
2024-05-09T08:58:07.570Z,35.91
2024-05-09T09:00:37.659Z,37.43
2024-05-09T09:03:09.115Z,37.54
2024-05-09T09:05:39.907Z,40.15
2024-05-09T09:08:08.619Z,39.06
2024-05-09T09:10:38.064Z,39.55
2024-05-09T09:13:09.402Z,40.30
2024-05-09T09:15:49.622Z,41.05
2024-05-09T09:18:17.342Z,40.90
2024-05-09T09:20:45.013Z,41.59
2024-05-09T09:23:12.002Z,41.60
2024-05-09T09:25:42.593Z,43.16
2024-05-09T09:28:09.924Z,41.48
2024-05-09T09:30:41.005Z,38.99
2024-05-09T09:33:11.778Z,39.79
2024-05-09T09:35:41.901Z,39.51
2024-05-09T09:38:10.451Z,36.69
2024-05-09T09:40:45.099Z,36.70
2024-05-09T09:43:20.857Z,34.11
2024-05-09T09:45:53.320Z,32.71
2024-05-09T09:48:22.880Z,33.20
2024-05-09T09:50:52.492Z,33.51
2024-05-09T09:53:19.709Z,33.98
2024-05-09T09:55:46.844Z,32.54
2024-05-09T09:58:16.297Z,31.32
2024-05-09T10:00:43.821Z,31.26
2024-05-09T10:03:10.846Z,31.20
2024-05-09T10:05:39.353Z,30.89
2024-05-09T10:08:09.888Z,30.08
2024-05-09T10:10:37.167Z,29.83
2024-05-09T10:13:05.569Z,30.68
2024-05-09T10:15:46.215Z,30.47
2024-05-09T10:18:14.205Z,29.58
2024-05-09T10:20:45.328Z,29.14
2024-05-09T10:23:31.344Z,28.99
2024-05-09T10:26:03.212Z,28.20
2024-05-09T10:28:37.938Z,28.33
2024-05-09T10:31:13.323Z,28.25
2024-05-09T10:33:45.565Z,27.71
2024-05-09T10:36:14.081Z,28.69
2024-05-09T10:38:42.919Z,28.49
2024-05-09T10:41:11.089Z,29.20
2024-05-09T10:43:41.627Z,27.99
2024-05-09T10:46:10.106Z,29.37
2024-05-09T10:48:38.665Z,32.56
2024-05-09T10:51:05.950Z,35.40
2024-05-09T10:53:40.916Z,38.47
2024-05-09T10:56:07.905Z,41.24
2024-05-09T10:58:34.846Z,43.99
2024-05-09T11:01:05.638Z,41.64
2024-05-09T11:03:34.225Z,38.26
2024-05-09T11:06:01.529Z,35.85
2024-05-09T11:08:29.257Z,33.19
2024-05-09T11:10:56.449Z,33.23
2024-05-09T11:13:34.194Z,36.19
2024-05-09T11:16:02.172Z,37.16
2024-05-09T11:18:35.179Z,35.66
2024-05-09T11:21:12.241Z,34.35
2024-05-09T11:23:39.229Z,35.02
2024-05-09T11:26:07.109Z,36.01
2024-05-09T11:28:33.939Z,36.37
2024-05-09T11:31:08.954Z,38.00
2024-05-09T11:33:38.789Z,39.60
2024-05-09T11:36:06.722Z,40.08
2024-05-09T11:38:33.834Z,41.23
2024-05-09T11:41:01.279Z,43.02
2024-05-09T11:43:28.148Z,40.15
2024-05-09T11:45:57.629Z,40.95
2024-05-09T11:48:25.841Z,40.75
2024-05-09T11:50:54.556Z,40.37
2024-05-09T11:53:21.557Z,40.77
2024-05-09T11:55:48.644Z,40.32
2024-05-09T11:58:17.601Z,39.39
2024-05-09T12:00:45.469Z,39.66
2024-05-09T12:03:12.701Z,41.65
2024-05-09T12:05:39.695Z,39.97
2024-05-09T12:08:07.163Z,39.96
2024-05-09T12:10:35.996Z,39.38
2024-05-09T12:13:05.816Z,39.26
2024-05-09T12:15:36.853Z,39.67
2024-05-09T12:18:05.913Z,39.24
2024-05-09T12:20:37.583Z,39.49
2024-05-09T12:23:08.877Z,39.35
2024-05-09T12:25:37.348Z,37.28
2024-05-09T12:28:04.524Z,37.10
2024-05-09T12:30:36.933Z,37.48
2024-05-09T12:33:13.440Z,37.32
2024-05-09T12:35:44.217Z,35.71
2024-05-09T12:38:14.151Z,33.93
2024-05-09T12:40:41.165Z,33.41
2024-05-09T12:43:09.608Z,32.85
2024-05-09T12:45:37.829Z,32.30
2024-05-09T12:48:08.257Z,31.65
2024-05-09T12:50:36.419Z,31.76
2024-05-09T12:53:04.771Z,32.29
2024-05-09T12:55:40.623Z,32.07
2024-05-09T12:58:16.831Z,31.41
2024-05-09T13:00:44.704Z,31.30
2024-05-09T13:03:11.710Z,31.28
2024-05-09T13:05:41.120Z,30.61
2024-05-09T13:08:08.268Z,30.35
2024-05-09T13:10:35.332Z,30.38
2024-05-09T13:13:02.450Z,30.21
2024-05-09T13:15:30.148Z,30.14
2024-05-09T13:18:00.453Z,30.40
2024-05-09T13:20:33.643Z,29.63
2024-05-09T13:23:04.015Z,29.59
2024-05-09T13:25:31.087Z,29.40
2024-05-09T13:27:58.476Z,29.61
2024-05-09T13:30:30.050Z,29.22
2024-05-09T13:33:06.587Z,29.45
2024-05-09T13:35:35.072Z,29.53
2024-05-09T13:38:02.780Z,29.23
2024-05-09T13:40:34.167Z,29.06
2024-05-09T13:43:04.835Z,28.94
2024-05-09T13:45:33.219Z,28.71
2024-05-09T13:48:00.972Z,28.81
2024-05-09T13:50:34.439Z,29.28
2024-05-09T13:53:05.979Z,29.25
2024-05-09T13:55:34.032Z,29.23
2024-05-09T13:58:01.776Z,28.91
2024-05-09T14:00:41.784Z,29.10
2024-05-09T14:03:14.273Z,28.93
2024-05-09T14:05:41.575Z,28.80
2024-05-09T14:08:09.052Z,28.75
2024-05-09T14:10:36.153Z,29.15
2024-05-09T14:13:03.228Z,29.47
2024-05-09T14:15:30.283Z,29.22
2024-05-09T14:17:57.416Z,29.48
2024-05-09T14:20:30.877Z,29.34
2024-05-09T14:23:00.843Z,29.30
2024-05-09T14:25:29.840Z,29.16
2024-05-09T14:27:59.967Z,29.06
2024-05-09T14:30:34.695Z,29.27
2024-05-09T14:33:05.735Z,28.77
2024-05-09T14:35:33.439Z,28.94
2024-05-09T14:38:00.469Z,29.42
2024-05-09T14:40:37.175Z,29.36
2024-05-09T14:43:10.768Z,29.58
2024-05-09T14:45:37.868Z,29.77
2024-05-09T14:48:06.185Z,29.98
2024-05-09T14:50:37.335Z,30.04
2024-05-09T14:53:07.566Z,29.58
2024-05-09T14:55:37.397Z,29.64
2024-05-09T14:58:08.891Z,29.10
2024-05-09T15:00:44.645Z,28.55
2024-05-09T15:03:15.193Z,29.03
2024-05-09T15:05:42.293Z,29.43
2024-05-09T15:08:09.236Z,29.85
2024-05-09T15:10:37.328Z,29.77
2024-05-09T15:13:07.271Z,29.53
2024-05-09T15:15:35.883Z,29.81
2024-05-09T15:18:04.465Z,29.31
2024-05-09T15:20:35.560Z,29.09
2024-05-09T15:23:05.268Z,28.63
2024-05-09T15:25:36.794Z,28.66
2024-05-09T15:28:07.330Z,29.30
2024-05-09T15:30:35.138Z,29.03
2024-05-09T15:33:06.212Z,28.51
2024-05-09T15:35:34.463Z,28.56
2024-05-09T15:38:03.220Z,28.16
2024-05-09T15:40:37.754Z,28.31
2024-05-09T15:43:09.305Z,28.17
2024-05-09T15:45:37.635Z,28.41
2024-05-09T15:48:05.474Z,28.82
2024-05-09T15:50:38.191Z,28.68
2024-05-09T15:53:09.466Z,29.32
2024-05-09T15:55:37.734Z,28.99
2024-05-09T15:58:06.014Z,29.08
2024-05-09T16:00:38.590Z,28.92
2024-05-09T16:03:09.967Z,28.74
2024-05-09T16:05:37.874Z,28.85
2024-05-09T16:08:06.170Z,28.63
2024-05-09T16:10:34.700Z,28.71
2024-05-09T16:13:03.086Z,28.74
2024-05-09T16:15:30.751Z,28.51
2024-05-09T16:17:57.941Z,28.02
2024-05-09T16:20:34.694Z,28.08
2024-05-09T16:23:07.621Z,27.72
2024-05-09T16:25:34.700Z,27.87
2024-05-09T16:28:03.378Z,27.61
2024-05-09T16:30:35.403Z,27.82
2024-05-09T16:33:04.608Z,27.29
2024-05-09T16:35:32.364Z,27.61
2024-05-09T16:38:01.944Z,27.89
2024-05-09T16:40:36.405Z,27.73
2024-05-09T16:43:07.526Z,27.64
2024-05-09T16:45:34.914Z,27.24
2024-05-09T16:48:02.830Z,27.34
2024-05-09T16:50:33.971Z,27.33
2024-05-09T16:53:03.978Z,27.34
2024-05-09T16:55:31.396Z,27.27
2024-05-09T16:57:58.484Z,27.09
2024-05-09T17:00:35.659Z,26.74
2024-05-09T17:03:09.993Z,26.80
2024-05-09T17:05:37.810Z,26.57
2024-05-09T17:08:05.485Z,26.25
2024-05-09T17:10:34.480Z,26.32
2024-05-09T17:13:04.292Z,26.27
2024-05-09T17:15:32.646Z,25.66
2024-05-09T17:17:59.818Z,25.97
2024-05-09T17:20:32.970Z,25.80
2024-05-09T17:23:04.078Z,25.87
2024-05-09T17:25:31.145Z,25.99
2024-05-09T17:28:05.268Z,25.89
2024-05-09T17:30:36.453Z,25.84
2024-05-09T17:33:06.620Z,25.86
2024-05-09T17:35:33.904Z,25.88
2024-05-09T17:38:01.725Z,25.94
2024-05-09T17:40:33.637Z,25.86
2024-05-09T17:43:04.259Z,25.90
2024-05-09T17:45:32.068Z,25.76
2024-05-09T17:47:59.963Z,25.76
2024-05-09T17:50:34.710Z,25.86
2024-05-09T17:53:04.450Z,25.58
2024-05-09T17:55:31.581Z,25.63
2024-05-09T17:57:58.627Z,25.60
2024-05-09T18:00:36.534Z,25.67
2024-05-09T18:03:08.184Z,25.66
2024-05-09T18:05:36.754Z,25.45
2024-05-09T18:08:04.821Z,25.49
2024-05-09T18:10:36.793Z,25.23
2024-05-09T18:13:09.739Z,25.30
2024-05-09T18:15:37.496Z,24.92
2024-05-09T18:18:05.539Z,25.18
2024-05-09T18:20:41.439Z,25.18
2024-05-09T18:23:17.187Z,25.03
2024-05-09T18:25:46.276Z,25.07
2024-05-09T18:28:13.758Z,24.92
2024-05-09T18:30:41.124Z,24.94
2024-05-09T18:33:11.101Z,24.85
2024-05-09T18:35:38.655Z,24.73
2024-05-09T18:38:05.996Z,24.66
2024-05-09T18:40:36.360Z,24.57
2024-05-09T18:43:07.834Z,24.53
2024-05-09T18:45:37.797Z,24.29
2024-05-09T18:48:06.615Z,24.31
2024-05-09T18:50:37.808Z,24.35
2024-05-09T18:53:07.402Z,24.25
2024-05-09T18:55:34.289Z,24.23
2024-05-09T18:58:01.337Z,24.08
2024-05-09T19:00:34.677Z,24.00
2024-05-09T19:03:09.116Z,24.01
2024-05-09T19:05:38.851Z,23.87
2024-05-09T19:08:07.357Z,23.88
2024-05-09T19:10:35.788Z,23.95
2024-05-09T19:13:08.172Z,23.79
2024-05-09T19:15:38.793Z,23.74
2024-05-09T19:18:06.575Z,23.61
2024-05-09T19:20:35.503Z,23.74
2024-05-09T19:23:04.341Z,23.54
2024-05-09T19:25:32.044Z,23.48
2024-05-09T19:27:59.794Z,23.39
2024-05-09T19:30:36.406Z,23.47
2024-05-09T19:33:07.931Z,23.29
2024-05-09T19:35:35.040Z,23.26
2024-05-09T19:38:02.373Z,23.13
2024-05-09T19:40:32.326Z,23.22
2024-05-09T19:43:02.615Z,23.21
2024-05-09T19:45:30.538Z,23.40
2024-05-09T19:47:57.673Z,23.18
2024-05-09T19:50:32.514Z,22.96
2024-05-09T19:53:07.961Z,22.78
2024-05-09T19:55:35.093Z,23.01
2024-05-09T19:58:05.232Z,23.04
2024-05-09T20:00:39.605Z,22.94
2024-05-09T20:03:09.639Z,22.92
2024-05-09T20:05:37.686Z,22.65
2024-05-09T20:08:06.041Z,22.82
2024-05-09T20:10:35.329Z,22.60
2024-05-09T20:13:05.207Z,22.70
2024-05-09T20:15:35.481Z,22.73
2024-05-09T20:18:02.963Z,22.79
2024-05-09T20:20:37.373Z,22.80
2024-05-09T20:23:08.861Z,22.59
2024-05-09T20:25:35.824Z,22.61
2024-05-09T20:28:02.928Z,22.67
2024-05-09T20:30:32.876Z,22.75
2024-05-09T20:33:05.762Z,22.60
2024-05-09T20:35:34.015Z,22.58
2024-05-09T20:38:02.342Z,22.50
2024-05-09T20:40:34.223Z,22.55
2024-05-09T20:43:04.850Z,22.48
2024-05-09T20:45:32.039Z,22.48
2024-05-09T20:47:59.190Z,22.42
2024-05-09T20:50:35.880Z,22.27
2024-05-09T20:53:15.371Z,22.31
2024-05-09T20:55:43.979Z,22.24
2024-05-09T20:58:11.976Z,22.11
2024-05-09T21:00:42.780Z,22.01
2024-05-09T21:03:13.494Z,22.00
2024-05-09T21:05:41.771Z,21.91
2024-05-09T21:08:09.039Z,21.81
2024-05-09T21:10:36.706Z,21.68
2024-05-09T21:13:04.773Z,21.54
2024-05-09T21:15:32.233Z,21.40
2024-05-09T21:17:59.490Z,21.27
2024-05-09T21:22:57.455Z,21.12
2024-05-09T21:25:24.370Z,21.06
2024-05-09T21:27:51.603Z,21.01
2024-05-09T21:30:23.146Z,20.84
2024-05-09T21:32:59.619Z,20.94
2024-05-09T21:35:26.797Z,20.96
2024-05-09T21:37:53.632Z,21.07
2024-05-09T21:40:27.353Z,21.01
2024-05-09T21:43:01.315Z,20.94
2024-05-09T21:45:28.319Z,20.93
2024-05-09T21:47:55.398Z,20.90
2024-05-09T21:50:28.384Z,20.84
2024-05-09T21:53:02.884Z,20.83
2024-05-09T21:55:30.130Z,20.67
2024-05-09T21:57:57.383Z,20.60
2024-05-09T22:00:32.280Z,20.55
2024-05-09T22:03:04.067Z,20.54
2024-05-09T22:05:31.142Z,20.43
2024-05-09T22:07:58.137Z,20.42
2024-05-09T22:10:30.882Z,20.39
2024-05-09T22:13:01.679Z,20.45
2024-05-09T22:15:28.970Z,20.26
2024-05-09T22:17:57.474Z,20.25
2024-05-09T22:20:34.233Z,20.31
2024-05-09T22:23:05.149Z,20.11
2024-05-09T22:25:32.740Z,19.92
2024-05-09T22:28:01.221Z,20.00
2024-05-09T22:30:35.740Z,19.99
2024-05-09T22:33:07.575Z,19.99
2024-05-09T22:35:34.726Z,20.04
2024-05-09T22:38:03.330Z,20.05
2024-05-09T22:40:38.966Z,19.95
2024-05-09T22:43:13.855Z,19.86
2024-05-09T22:45:41.253Z,19.81
2024-05-09T22:48:09.375Z,19.71
2024-05-09T22:50:36.532Z,19.58
2024-05-09T22:53:03.560Z,19.56
2024-05-09T22:55:30.466Z,19.49
2024-05-09T22:57:57.491Z,19.49
2024-05-09T23:02:54.371Z,19.55
2024-05-09T23:05:21.344Z,19.50
2024-05-09T23:07:49.174Z,19.52
2024-05-09T23:10:21.443Z,19.56
2024-05-09T23:12:55.582Z,19.40
2024-05-09T23:15:22.479Z,19.42
2024-05-09T23:17:49.378Z,19.34
2024-05-09T23:20:22.080Z,19.33
2024-05-09T23:22:56.772Z,19.32
2024-05-09T23:25:23.606Z,19.27
2024-05-09T23:27:50.644Z,19.16
2024-05-09T23:30:28.424Z,19.13
2024-05-09T23:33:01.861Z,19.10
2024-05-09T23:35:28.831Z,19.14
2024-05-09T23:37:55.791Z,19.16
2024-05-09T23:40:23.640Z,19.03
2024-05-09T23:42:53.596Z,18.79
2024-05-09T23:45:20.457Z,18.85
2024-05-09T23:47:47.540Z,18.86
2024-05-09T23:50:20.383Z,18.44
2024-05-09T23:52:50.823Z,18.62
2024-05-09T23:55:18.440Z,18.56
2024-05-09T23:57:45.393Z,18.54
